Casselton, North Dakota
Current Conditions -  °F | °C
As of 3:53 PM on Sunday 25 Jan 2015 (Local Time) from KFAR Reporting Station
Clear Clear  
Wind Chill: 19°   Ceiling: Unl
Heat Index: 26°   Visibility: 10mi
Dew Point: 16°   Wind: 6mph
Humidity: 66%   Direction: 190°S
Pressure: 29.99"   Gusts: NA
Location:  46.9°N, 97.21°W
Report Text: KFAR 252153Z 19005KT 10SM CLR M03/M09 A2999 RMK AO2 SLP171 T10331089
Loading
Personal Weather Stations






























Interactive Weather Map New forecast layout! Learn more

10-Day Weather Forecast

Advertisements
Track Severe Weather on mobile